Time;durP1;ratioP1;P1;durP2;ratioP2;P2;SDS_P1;SDS_P2;PMS_P1;PMS_P2;Temp;Humidity;BMP_temperature;BMP_pressure;BME280_temperature;BME280_humidity;BME280_pressure;Samples;Min_cycle;Max_cycle;Signal;HPM_P1;HPM_P2
2022/01/19 00:00:49;;;;;;;0.10;0.10;;;;;;;;;;5146731;27;20534;-70
2022/01/19 00:03:16;;;;;;;0.13;0.13;;;;;;;;;;5141929;27;20200;-70
2022/01/19 00:05:43;;;;;;;0.10;0.10;;;;;;;;;;5126154;28;20205;-71
2022/01/19 00:08:10;;;;;;;0.10;0.10;;;;;;;;;;5125705;28;20205;-71
2022/01/19 00:10:39;;;;;;;0.13;0.13;;;;;;;;;;5125777;28;20484;-71
2022/01/19 00:13:05;;;;;;;0.10;0.10;;;;;;;;;;5125740;27;20208;-72
2022/01/19 00:15:32;;;;;;;0.10;0.10;;;;;;;;;;5125711;28;20270;-72
2022/01/19 00:17:59;;;;;;;0.10;0.10;;;;;;;;;;5125761;28;20213;-72
2022/01/19 00:20:26;;;;;;;0.10;0.10;;;;;;;;;;5125858;28;20205;-71
2022/01/19 00:22:53;;;;;;;0.10;0.10;;;;;;;;;;5125601;28;20214;-72
2022/01/19 00:25:20;;;;;;;0.10;0.10;;;;;;;;;;5125777;28;20325;-71
2022/01/19 00:27:46;;;;;;;0.30;0.30;;;;;;;;;;5125280;28;20281;-72
2022/01/19 00:30:12;;;;;;;0.10;0.10;;;;;;;;;;5125419;28;20203;-72
2022/01/19 00:32:40;;;;;;;0.10;0.10;;;;;;;;;;5125193;28;20554;-72
2022/01/19 00:35:08;;;;;;;0.10;0.10;;;;;;;;;;5143042;27;20228;-72
2022/01/19 00:37:34;;;;;;;0.20;0.20;;;;;;;;;;5146207;27;20537;-72
2022/01/19 00:40:00;;;;;;;0.10;0.10;;;;;;;;;;5145894;27;20201;-72
2022/01/19 00:42:26;;;;;;;0.10;0.10;;;;;;;;;;5146067;27;20201;-72
2022/01/19 00:44:53;;;;;;;0.10;0.10;;;;;;;;;;5146046;27;20219;-71
2022/01/19 00:47:19;;;;;;;0.10;0.10;;;;;;;;;;5146022;27;20205;-72
2022/01/19 00:49:47;;;;;;;0.17;0.17;;;;;;;;;;5145813;27;20365;-71
2022/01/19 00:52:13;;;;;;;0.10;0.10;;;;;;;;;;5145889;27;20208;-71
2022/01/19 00:54:41;;;;;;;0.10;0.10;;;;;;;;;;5145391;27;20534;-71
2022/01/19 00:57:07;;;;;;;0.10;0.10;;;;;;;;;;5145681;27;20204;-71
2022/01/19 00:59:34;;;;;;;0.10;0.10;;;;;;;;;;5144848;27;20204;-71
2022/01/19 01:02:00;;;;;;;0.10;0.10;;;;;;;;;;5145970;27;20201;-72
2022/01/19 01:04:27;;;;;;;0.10;0.10;;;;;;;;;;5145868;27;20226;-72
2022/01/19 01:06:54;;;;;;;0.10;0.10;;;;;;;;;;5145456;27;20223;-71
2022/01/19 01:09:21;;;;;;;0.10;0.10;;;;;;;;;;5145584;27;20224;-72
2022/01/19 01:11:58;;;;;;;0.10;0.10;;;;;;;;;;5145630;27;20528;-72
2022/01/19 01:18:16;;;;;;;0.20;0.20;;;;;;;;;;5145239;27;20545;-72
2022/01/19 01:19:59;;;;;;;0.10;0.10;;;;;;;;;;5145107;27;20204;-71
2022/01/19 01:22:26;;;;;;;0.20;0.20;;;;;;;;;;5145563;27;20616;-71
2022/01/19 01:24:52;;;;;;;0.60;0.60;;;;;;;;;;5145419;27;20249;-72
2022/01/19 01:27:19;;;;;;;0.20;0.20;;;;;;;;;;5145457;27;20387;-72
2022/01/19 01:29:45;;;;;;;0.10;0.10;;;;;;;;;;5145459;27;20207;-72
2022/01/19 01:32:12;;;;;;;0.10;0.10;;;;;;;;;;5145256;27;20201;-72
2022/01/19 01:34:38;;;;;;;0.10;0.10;;;;;;;;;;5144838;27;20203;-71
2022/01/19 01:37:04;;;;;;;0.13;0.13;;;;;;;;;;5144856;27;20229;-71
2022/01/19 01:39:32;;;;;;;0.20;0.20;;;;;;;;;;5144813;27;20422;-72
2022/01/19 01:41:58;;;;;;;0.10;0.10;;;;;;;;;;5145081;27;20211;-72
2022/01/19 01:44:24;;;;;;;0.10;0.10;;;;;;;;;;5144477;27;20208;-72
2022/01/19 01:46:55;;;;;;;0.10;0.10;;;;;;;;;;5144912;27;20257;-72
2022/01/19 01:49:27;;;;;;;0.10;0.10;;;;;;;;;;5145066;27;20196;-71
2022/01/19 01:54:40;;;;;;;0.10;0.10;;;;;;;;;;5144770;27;20204;-72
2022/01/19 01:57:07;;;;;;;0.10;0.10;;;;;;;;;;5144452;27;20265;-72
2022/01/19 01:59:34;;;;;;;0.10;0.10;;;;;;;;;;5144664;27;20245;-72
2022/01/19 02:02:00;;;;;;;0.10;0.10;;;;;;;;;;5144812;27;20553;-73
2022/01/19 02:04:27;;;;;;;0.10;0.10;;;;;;;;;;5144360;27;20500;-72
2022/01/19 02:07:15;;;;;;;0.10;0.10;;;;;;;;;;5144722;27;20400;-72
2022/01/19 02:09:46;;;;;;;0.10;0.10;;;;;;;;;;5144604;27;20272;-71
2022/01/19 02:23:17;;;;;;;0.10;0.10;;;;;;;;;;5144193;27;20224;-73
2022/01/19 02:25:45;;;;;;;0.10;0.10;;;;;;;;;;5144054;27;20197;-73
2022/01/19 02:36:51;;;;;;;0.10;0.10;;;;;;;;;;5143893;27;20423;-72
2022/01/19 02:42:04;;;;;;;0.20;0.20;;;;;;;;;;5143983;27;20221;-72
2022/01/19 02:46:31;;;;;;;0.10;0.10;;;;;;;;;;5143759;27;20236;-72
2022/01/19 02:50:04;;;;;;;0.10;0.10;;;;;;;;;;5143846;28;20246;-72
2022/01/19 02:52:32;;;;;;;0.10;0.10;;;;;;;;;;5143702;27;20201;-72
2022/01/19 02:54:58;;;;;;;0.10;0.10;;;;;;;;;;5143686;27;20207;-73
2022/01/19 02:57:26;;;;;;;0.10;0.10;;;;;;;;;;5143733;27;20272;-71
2022/01/19 03:06:27;;;;;;;0.10;0.10;;;;;;;;;;5143213;27;20247;-72
2022/01/19 03:11:00;;;;;;;0.17;0.17;;;;;;;;;;5123018;28;20226;-72
2022/01/19 03:13:27;;;;;;;0.10;0.10;;;;;;;;;;5123029;28;20504;-72
2022/01/19 03:15:53;;;;;;;0.10;0.10;;;;;;;;;;5123232;28;20228;-72
2022/01/19 03:18:19;;;;;;;0.10;0.10;;;;;;;;;;5122888;28;20250;-72
2022/01/19 03:20:45;;;;;;;0.10;0.10;;;;;;;;;;5123196;28;20205;-72
2022/01/19 03:23:18;;;;;;;0.10;0.10;;;;;;;;;;5126197;28;20211;-72
2022/01/19 03:25:46;;;;;;;0.10;0.10;;;;;;;;;;5127230;28;20186;-71
2022/01/19 03:28:12;;;;;;;0.10;0.10;;;;;;;;;;5127121;28;20378;-72
2022/01/19 03:30:38;;;;;;;0.10;0.10;;;;;;;;;;5127108;28;20242;-72
2022/01/19 03:33:04;;;;;;;0.10;0.10;;;;;;;;;;5126779;28;20245;-71
2022/01/19 03:35:31;;;;;;;0.10;0.10;;;;;;;;;;5126996;28;20266;-71
2022/01/19 03:37:57;;;;;;;0.10;0.10;;;;;;;;;;5126902;28;20205;-71
2022/01/19 03:40:23;;;;;;;0.10;0.10;;;;;;;;;;5126247;27;20208;-71
2022/01/19 03:42:51;;;;;;;0.10;0.10;;;;;;;;;;5126851;28;20504;-72
2022/01/19 03:45:18;;;;;;;0.10;0.10;;;;;;;;;;5126837;28;20239;-72
2022/01/19 03:47:50;;;;;;;0.10;0.10;;;;;;;;;;5126515;27;20203;-72
2022/01/19 03:50:16;;;;;;;0.13;0.13;;;;;;;;;;5144760;27;20195;-71
2022/01/19 03:52:42;;;;;;;0.10;0.10;;;;;;;;;;5146963;27;20204;-71
2022/01/19 03:55:09;;;;;;;0.10;0.10;;;;;;;;;;5147124;27;20203;-72
2022/01/19 03:57:36;;;;;;;0.10;0.10;;;;;;;;;;5147035;27;20225;-71
2022/01/19 04:00:04;;;;;;;0.10;0.10;;;;;;;;;;5146774;27;20201;-71
2022/01/19 04:02:33;;;;;;;0.10;0.10;;;;;;;;;;5146780;27;20200;-72
2022/01/19 04:05:04;;;;;;;0.10;0.10;;;;;;;;;;5146752;27;20203;-71
2022/01/19 04:07:30;;;;;;;0.10;0.10;;;;;;;;;;5146982;27;20234;-72
2022/01/19 04:09:57;;;;;;;0.20;0.20;;;;;;;;;;5146928;27;20538;-71
2022/01/19 04:12:41;;;;;;;0.10;0.10;;;;;;;;;;5146658;27;20249;-71
2022/01/19 04:15:09;;;;;;;0.10;0.10;;;;;;;;;;5147078;27;20199;-71
2022/01/19 04:17:37;;;;;;;0.10;0.10;;;;;;;;;;5146395;27;20274;-72
2022/01/19 04:20:03;;;;;;;0.10;0.10;;;;;;;;;;5146851;27;20201;-72
2022/01/19 04:22:29;;;;;;;0.13;0.13;;;;;;;;;;5146808;27;20211;-72
2022/01/19 04:24:55;;;;;;;0.10;0.10;;;;;;;;;;5146359;27;20563;-72
2022/01/19 04:27:37;;;;;;;0.10;0.10;;;;;;;;;;5146580;27;20199;-72
2022/01/19 04:30:08;;;;;;;0.10;0.10;;;;;;;;;;5146487;27;20189;-71
2022/01/19 04:32:42;;;;;;;0.10;0.10;;;;;;;;;;5146101;27;20193;-72
2022/01/19 04:35:10;;;;;;;0.10;0.10;;;;;;;;;;5145511;27;20201;-71
2022/01/19 04:46:05;;;;;;;0.20;0.20;;;;;;;;;;5125432;28;20544;-72
2022/01/19 04:54:37;;;;;;;0.10;0.10;;;;;;;;;;5125480;28;20191;-71
2022/01/19 05:02:58;;;;;;;0.13;0.13;;;;;;;;;;5124523;28;20202;-71
2022/01/19 05:05:29;;;;;;;0.10;0.10;;;;;;;;;;5124695;28;20272;-71
2022/01/19 05:08:01;;;;;;;0.10;0.10;;;;;;;;;;5125234;28;20243;-71
2022/01/19 05:13:26;;;;;;;0.17;0.17;;;;;;;;;;5124971;28;20203;-72
2022/01/19 05:15:52;;;;;;;0.10;0.10;;;;;;;;;;5125022;28;20205;-71
2022/01/19 05:18:19;;;;;;;0.10;0.10;;;;;;;;;;5124570;28;20205;-72
2022/01/19 05:20:47;;;;;;;0.10;0.10;;;;;;;;;;5124634;28;20203;-71
2022/01/19 05:23:14;;;;;;;0.20;0.20;;;;;;;;;;5124845;28;20266;-72
2022/01/19 05:25:41;;;;;;;0.10;0.10;;;;;;;;;;5124598;28;20212;-71
2022/01/19 05:28:07;;;;;;;0.10;0.10;;;;;;;;;;5124551;27;20265;-70
2022/01/19 05:30:33;;;;;;;0.10;0.10;;;;;;;;;;5124685;28;20543;-72
2022/01/19 05:33:00;;;;;;;0.10;0.10;;;;;;;;;;5124356;28;20204;-71
2022/01/19 05:35:27;;;;;;;0.10;0.10;;;;;;;;;;5124579;28;20289;-71
2022/01/19 05:37:55;;;;;;;0.20;0.20;;;;;;;;;;5124559;28;20232;-71
2022/01/19 05:40:21;;;;;;;0.10;0.10;;;;;;;;;;5124243;28;20205;-71
2022/01/19 05:42:49;;;;;;;0.10;0.10;;;;;;;;;;5124500;28;20254;-71
2022/01/19 05:45:15;;;;;;;0.10;0.10;;;;;;;;;;5123700;28;20202;-71
2022/01/19 05:47:41;;;;;;;0.10;0.10;;;;;;;;;;5123994;28;20202;-72
2022/01/19 05:50:08;;;;;;;0.10;0.10;;;;;;;;;;5141200;27;20203;-72
2022/01/19 05:52:34;;;;;;;0.10;0.10;;;;;;;;;;5144854;27;20557;-71
2022/01/19 05:55:02;;;;;;;0.10;0.10;;;;;;;;;;5144763;27;20204;-72
2022/01/19 05:57:28;;;;;;;0.10;0.10;;;;;;;;;;5144766;27;20223;-71
2022/01/19 05:59:54;;;;;;;0.10;0.10;;;;;;;;;;5144493;27;20214;-72
2022/01/19 06:02:20;;;;;;;0.10;0.10;;;;;;;;;;5144794;27;20204;-73
2022/01/19 06:04:47;;;;;;;0.10;0.10;;;;;;;;;;5144707;27;20204;-71
2022/01/19 06:07:13;;;;;;;0.10;0.10;;;;;;;;;;5144650;27;20202;-71
2022/01/19 06:09:50;;;;;;;0.10;0.10;;;;;;;;;;5144597;27;20221;-73
2022/01/19 06:12:17;;;;;;;0.10;0.10;;;;;;;;;;5144601;27;20263;-71
2022/01/19 06:14:44;;;;;;;0.10;0.10;;;;;;;;;;5144633;27;20203;-71
2022/01/19 06:17:11;;;;;;;0.10;0.10;;;;;;;;;;5144019;27;20569;-71
2022/01/19 06:19:38;;;;;;;0.10;0.10;;;;;;;;;;5144316;27;20192;-72
2022/01/19 06:22:04;;;;;;;0.10;0.10;;;;;;;;;;5143173;27;20507;-72
2022/01/19 06:24:31;;;;;;;0.13;0.13;;;;;;;;;;5144035;27;20247;-71
2022/01/19 06:26:57;;;;;;;0.13;0.13;;;;;;;;;;5143973;27;20199;-72
2022/01/19 06:29:24;;;;;;;0.20;0.20;;;;;;;;;;5144296;27;20234;-72
2022/01/19 06:31:51;;;;;;;0.10;0.10;;;;;;;;;;5144004;27;20223;-72
2022/01/19 06:34:17;;;;;;;0.10;0.10;;;;;;;;;;5144252;27;20205;-71
2022/01/19 06:36:44;;;;;;;0.10;0.10;;;;;;;;;;5144083;27;20268;-72
2022/01/19 06:39:10;;;;;;;0.20;0.20;;;;;;;;;;5144132;27;20441;-71
2022/01/19 06:41:36;;;;;;;0.10;0.10;;;;;;;;;;5143861;27;20200;-72
2022/01/19 06:44:02;;;;;;;0.20;0.20;;;;;;;;;;5143998;27;20268;-71
2022/01/19 06:46:30;;;;;;;0.10;0.10;;;;;;;;;;5143859;27;20207;-71
2022/01/19 06:48:57;;;;;;;0.23;0.23;;;;;;;;;;5143972;27;20201;-71
2022/01/19 06:51:23;;;;;;;0.10;0.10;;;;;;;;;;5143636;27;20224;-72
2022/01/19 06:53:49;;;;;;;0.10;0.10;;;;;;;;;;5144118;27;20203;-72
2022/01/19 06:56:17;;;;;;;0.10;0.10;;;;;;;;;;5144019;27;20306;-72
2022/01/19 06:58:43;;;;;;;0.10;0.10;;;;;;;;;;5147970;27;20202;-72
2022/01/19 07:01:09;;;;;;;0.20;0.20;;;;;;;;;;5147895;27;20243;-72
2022/01/19 07:03:37;;;;;;;0.10;0.10;;;;;;;;;;5147905;27;20228;-72
2022/01/19 07:06:03;;;;;;;0.10;0.10;;;;;;;;;;5147899;27;20497;-72
2022/01/19 07:08:30;;;;;;;2.97;2.77;;;;;;;;;;5141456;27;20209;-72
2022/01/19 07:10:56;;;;;;;0.20;0.20;;;;;;;;;;5136491;27;20221;-72
2022/01/19 07:13:22;;;;;;;0.20;0.20;;;;;;;;;;5127750;27;20204;-71
2022/01/19 07:15:48;;;;;;;0.10;0.10;;;;;;;;;;5126547;28;20266;-72
2022/01/19 07:18:15;;;;;;;0.10;0.10;;;;;;;;;;5129195;27;20442;-70
2022/01/19 07:20:42;;;;;;;0.10;0.10;;;;;;;;;;5138466;27;20215;-72
2022/01/19 07:23:08;;;;;;;0.20;0.20;;;;;;;;;;5136764;27;20564;-71
2022/01/19 07:25:35;;;;;;;0.10;0.10;;;;;;;;;;5135489;27;20201;-71
2022/01/19 07:28:01;;;;;;;0.10;0.10;;;;;;;;;;5135785;27;20198;-71
2022/01/19 07:30:28;;;;;;;0.10;0.10;;;;;;;;;;5132809;27;20251;-71
2022/01/19 07:32:54;;;;;;;0.10;0.10;;;;;;;;;;5135118;27;20516;-71
2022/01/19 07:35:20;;;;;;;0.17;0.17;;;;;;;;;;5131948;27;20200;-72
2022/01/19 07:37:48;;;;;;;0.20;0.20;;;;;;;;;;5136544;27;20583;-72
2022/01/19 07:40:14;;;;;;;0.10;0.10;;;;;;;;;;5134917;27;20202;-72
2022/01/19 07:42:41;;;;;;;0.10;0.10;;;;;;;;;;5129423;27;20207;-72
2022/01/19 07:45:08;;;;;;;0.63;0.63;;;;;;;;;;5132097;27;20203;-73
2022/01/19 07:47:34;;;;;;;0.10;0.10;;;;;;;;;;5140714;27;20199;-72
2022/01/19 07:50:00;;;;;;;0.10;0.10;;;;;;;;;;5131412;27;20196;-72
2022/01/19 07:52:26;;;;;;;0.10;0.10;;;;;;;;;;5133859;27;20248;-72
2022/01/19 07:54:54;;;;;;;0.10;0.10;;;;;;;;;;5129445;27;20205;-72
2022/01/19 07:57:20;;;;;;;0.10;0.10;;;;;;;;;;5130257;27;20277;-72
2022/01/19 07:59:46;;;;;;;0.10;0.10;;;;;;;;;;5126166;27;20204;-73
2022/01/19 08:02:13;;;;;;;0.20;0.20;;;;;;;;;;5130898;27;20200;-74
2022/01/19 08:04:40;;;;;;;0.13;0.13;;;;;;;;;;5131800;27;20243;-72
2022/01/19 08:07:06;;;;;;;0.10;0.10;;;;;;;;;;5130771;27;20200;-73
2022/01/19 08:09:33;;;;;;;0.17;0.17;;;;;;;;;;5134095;27;20262;-74
2022/01/19 08:12:01;;;;;;;0.10;0.10;;;;;;;;;;5128563;27;20279;-73
2022/01/19 08:14:27;;;;;;;0.10;0.10;;;;;;;;;;5134283;27;20208;-72
2022/01/19 08:16:54;;;;;;;0.10;0.10;;;;;;;;;;5146601;27;20222;-73
2022/01/19 08:19:20;;;;;;;0.10;0.10;;;;;;;;;;5146255;27;20199;-73
2022/01/19 08:21:47;;;;;;;0.10;0.10;;;;;;;;;;5146723;27;20375;-73
2022/01/19 08:24:13;;;;;;;0.20;0.20;;;;;;;;;;5146563;27;20204;-73
2022/01/19 08:26:40;;;;;;;0.20;0.20;;;;;;;;;;5146563;27;20229;-72
2022/01/19 08:29:09;;;;;;;0.10;0.10;;;;;;;;;;5139252;27;20201;-71
2022/01/19 08:31:35;;;;;;;0.10;0.10;;;;;;;;;;5142385;27;20329;-71
2022/01/19 08:34:01;;;;;;;0.20;0.20;;;;;;;;;;5143418;27;20207;-73
2022/01/19 08:36:28;;;;;;;0.20;0.20;;;;;;;;;;5131795;27;20205;-73
2022/01/19 08:38:54;;;;;;;0.10;0.10;;;;;;;;;;5134580;27;20231;-71
2022/01/19 08:41:20;;;;;;;0.10;0.10;;;;;;;;;;5146291;27;20254;-72
2022/01/19 08:43:47;;;;;;;0.20;0.20;;;;;;;;;;5131500;27;20212;-71
2022/01/19 08:46:14;;;;;;;0.10;0.10;;;;;;;;;;5131127;27;20202;-72
2022/01/19 08:48:41;;;;;;;0.10;0.10;;;;;;;;;;5125221;28;20202;-73
2022/01/19 08:51:07;;;;;;;0.20;0.20;;;;;;;;;;5134049;27;20204;-72
2022/01/19 08:53:33;;;;;;;0.10;0.10;;;;;;;;;;5145534;27;20245;-72
2022/01/19 08:55:59;;;;;;;0.10;0.10;;;;;;;;;;5146053;27;20202;-72
2022/01/19 08:58:26;;;;;;;0.10;0.10;;;;;;;;;;5145815;27;20224;-72
2022/01/19 09:00:52;;;;;;;0.10;0.10;;;;;;;;;;5142388;27;20298;-73
2022/01/19 09:03:20;;;;;;;0.23;0.23;;;;;;;;;;5145753;27;20234;-73
2022/01/19 09:05:46;;;;;;;0.10;0.10;;;;;;;;;;5145913;27;20223;-73
2022/01/19 09:08:13;;;;;;;0.10;0.10;;;;;;;;;;5145231;27;20193;-71
2022/01/19 09:10:40;;;;;;;0.10;0.10;;;;;;;;;;5130914;27;20384;-72
2022/01/19 09:13:07;;;;;;;0.10;0.10;;;;;;;;;;5124698;28;20206;-73
2022/01/19 09:15:33;;;;;;;0.10;0.10;;;;;;;;;;5124844;28;20246;-71
2022/01/19 09:17:59;;;;;;;0.10;0.10;;;;;;;;;;5124524;28;20236;-75
2022/01/19 09:20:27;;;;;;;0.20;0.20;;;;;;;;;;5124135;28;20202;-73
2022/01/19 09:22:53;;;;;;;0.10;0.10;;;;;;;;;;5124478;28;20239;-72
2022/01/19 09:25:19;;;;;;;0.10;0.10;;;;;;;;;;5124366;28;20205;-72
2022/01/19 09:27:46;;;;;;;0.10;0.10;;;;;;;;;;5124728;28;20198;-71
2022/01/19 09:30:15;;;;;;;0.10;0.10;;;;;;;;;;5124571;27;20243;-75
2022/01/19 09:32:44;;;;;;;0.10;0.10;;;;;;;;;;5124530;28;20557;-72
2022/01/19 09:35:10;;;;;;;0.10;0.10;;;;;;;;;;5142712;27;20198;-74
2022/01/19 09:37:39;;;;;;;0.10;0.10;;;;;;;;;;5140104;27;20214;-72
2022/01/19 09:40:06;;;;;;;0.10;0.10;;;;;;;;;;5124613;28;20214;-72
2022/01/19 09:42:33;;;;;;;0.10;0.10;;;;;;;;;;5124356;28;20209;-74
2022/01/19 09:44:59;;;;;;;0.10;0.10;;;;;;;;;;5133510;27;20197;-73
2022/01/19 09:47:25;;;;;;;0.10;0.10;;;;;;;;;;5142406;27;20198;-74
2022/01/19 09:49:52;;;;;;;0.17;0.17;;;;;;;;;;5144671;27;20205;-73
2022/01/19 09:52:18;;;;;;;0.13;0.13;;;;;;;;;;5144875;27;20209;-73
2022/01/19 09:54:45;;;;;;;0.10;0.10;;;;;;;;;;5143489;27;20202;-72
2022/01/19 09:57:12;;;;;;;0.10;0.10;;;;;;;;;;5135473;27;20239;-72
2022/01/19 09:59:38;;;;;;;0.10;0.10;;;;;;;;;;5124242;28;20209;-72
2022/01/19 10:02:06;;;;;;;0.20;0.20;;;;;;;;;;5124240;27;20207;-73
2022/01/19 10:04:33;;;;;;;0.10;0.10;;;;;;;;;;5128216;27;20200;-73
2022/01/19 10:07:10;;;;;;;0.10;0.10;;;;;;;;;;5131756;27;20206;-72
2022/01/19 10:09:48;;;;;;;0.10;0.10;;;;;;;;;;5141784;27;20217;-72
2022/01/19 10:17:54;;;;;;;0.10;0.10;;;;;;;;;;5144102;27;20255;-72
2022/01/19 10:20:21;;;;;;;0.10;0.10;;;;;;;;;;5138504;27;20246;-72
2022/01/19 10:22:47;;;;;;;0.10;0.10;;;;;;;;;;5123892;28;20316;-72
2022/01/19 10:25:15;;;;;;;0.20;0.20;;;;;;;;;;5126956;27;20517;-71
2022/01/19 10:27:42;;;;;;;0.10;0.10;;;;;;;;;;5136782;27;20202;-73
2022/01/19 10:30:16;;;;;;;0.10;0.10;;;;;;;;;;5136671;27;20265;-72
2022/01/19 10:32:46;;;;;;;0.10;0.10;;;;;;;;;;5144287;27;20426;-73
2022/01/19 10:35:13;;;;;;;0.10;0.10;;;;;;;;;;5144024;27;20201;-74
2022/01/19 10:37:39;;;;;;;0.10;0.10;;;;;;;;;;5144127;27;20229;-73
2022/01/19 10:40:06;;;;;;;0.10;0.10;;;;;;;;;;5144265;27;20242;-72
2022/01/19 10:42:34;;;;;;;0.10;0.10;;;;;;;;;;5144188;27;20201;-72
2022/01/19 10:45:02;;;;;;;0.10;0.10;;;;;;;;;;5144350;27;20496;-73
2022/01/19 10:47:38;;;;;;;0.10;0.10;;;;;;;;;;5143903;27;20231;-71
2022/01/19 10:50:05;;;;;;;0.10;0.10;;;;;;;;;;5137219;27;20200;-74
2022/01/19 10:52:32;;;;;;;0.20;0.20;;;;;;;;;;5123497;28;20218;-73
2022/01/19 10:54:59;;;;;;;0.10;0.10;;;;;;;;;;5132747;28;20201;-72
2022/01/19 10:57:26;;;;;;;0.10;0.10;;;;;;;;;;5143548;27;20220;-72
2022/01/19 11:00:09;;;;;;;0.10;0.10;;;;;;;;;;5144107;27;20204;-72
2022/01/19 11:02:36;;;;;;;0.20;0.20;;;;;;;;;;5144151;27;20266;-75
2022/01/19 11:05:03;;;;;;;0.10;0.10;;;;;;;;;;5142759;27;20456;-73
2022/01/19 11:07:29;;;;;;;0.10;0.10;;;;;;;;;;5143352;27;20245;-72
2022/01/19 11:10:07;;;;;;;0.20;0.20;;;;;;;;;;5143674;27;20224;-72
2022/01/19 11:12:39;;;;;;;0.10;0.10;;;;;;;;;;5144263;27;20249;-72
2022/01/19 11:15:08;;;;;;;0.10;0.10;;;;;;;;;;5143876;27;20192;-70
2022/01/19 11:17:34;;;;;;;0.10;0.10;;;;;;;;;;5131616;27;20544;-72
2022/01/19 11:20:02;;;;;;;0.10;0.10;;;;;;;;;;5123382;28;20204;-71
2022/01/19 11:22:34;;;;;;;0.13;0.13;;;;;;;;;;5139892;28;20257;-72
2022/01/19 11:25:03;;;;;;;0.10;0.10;;;;;;;;;;5143934;27;20470;-71
2022/01/19 11:27:36;;;;;;;0.10;0.10;;;;;;;;;;5143837;27;20504;-73
2022/01/19 11:30:15;;;;;;;0.20;0.20;;;;;;;;;;5143909;27;20192;-72
2022/01/19 11:32:42;;;;;;;0.10;0.10;;;;;;;;;;5143665;27;20223;-72
2022/01/19 11:35:09;;;;;;;0.20;0.20;;;;;;;;;;5143833;27;20203;-72
2022/01/19 11:37:37;;;;;;;0.30;0.30;;;;;;;;;;5143840;27;20386;-72
2022/01/19 11:40:05;;;;;;;0.10;0.10;;;;;;;;;;5143782;27;20289;-72
2022/01/19 11:42:32;;;;;;;0.10;0.10;;;;;;;;;;5143632;27;20222;-73
2022/01/19 11:44:58;;;;;;;0.20;0.20;;;;;;;;;;5147629;27;20210;-73
2022/01/19 11:47:29;;;;;;;0.10;0.10;;;;;;;;;;5147223;27;20205;-72
2022/01/19 11:49:57;;;;;;;0.20;0.20;;;;;;;;;;5132346;27;20189;-71
2022/01/19 11:52:26;;;;;;;0.10;0.10;;;;;;;;;;5126980;27;20254;-72
2022/01/19 11:54:52;;;;;;;0.10;0.10;;;;;;;;;;5126913;28;20216;-73
2022/01/19 11:57:22;;;;;;;0.13;0.13;;;;;;;;;;5126757;28;20204;-72
2022/01/19 12:00:15;;;;;;;0.10;0.10;;;;;;;;;;5138061;27;20222;-73
2022/01/19 12:02:44;;;;;;;0.20;0.20;;;;;;;;;;5144393;27;20392;-74
2022/01/19 12:05:15;;;;;;;0.20;0.20;;;;;;;;;;5133742;27;20215;-71
2022/01/19 12:07:42;;;;;;;0.20;0.20;;;;;;;;;;5126478;28;20556;-72
2022/01/19 12:10:10;;;;;;;0.20;0.20;;;;;;;;;;5126045;28;20220;-72
2022/01/19 12:12:43;;;;;;;0.20;0.20;;;;;;;;;;5141712;27;20201;-71
2022/01/19 12:15:31;;;;;;;0.20;0.20;;;;;;;;;;5146766;27;20198;-71
2022/01/19 12:18:08;;;;;;;0.20;0.20;;;;;;;;;;5146341;27;20210;-72
2022/01/19 12:20:50;;;;;;;0.20;0.20;;;;;;;;;;5146841;27;20190;-72
2022/01/19 12:23:27;;;;;;;0.20;0.20;;;;;;;;;;5146655;27;20244;-72
2022/01/19 12:25:54;;;;;;;0.20;0.20;;;;;;;;;;5142553;27;20554;-72
2022/01/19 12:28:35;;;;;;;0.20;0.20;;;;;;;;;;5133227;27;20412;-72
2022/01/19 12:31:29;;;;;;;0.20;0.20;;;;;;;;;;5125592;28;20208;-71
2022/01/19 12:34:18;;;;;;;0.77;0.77;;;;;;;;;;5125817;27;20190;-71
2022/01/19 12:36:47;;;;;;;0.20;0.20;;;;;;;;;;5120954;28;20489;-72
2022/01/19 12:39:31;;;;;;;0.20;0.20;;;;;;;;;;5125501;28;20494;-72
2022/01/19 12:41:59;;;;;;;0.20;0.20;;;;;;;;;;5125932;28;20372;-73
2022/01/19 12:44:38;;;;;;;0.20;0.20;;;;;;;;;;5137730;27;20289;-74
2022/01/19 12:47:06;;;;;;;0.20;0.20;;;;;;;;;;5146253;27;20238;-74
2022/01/19 12:49:32;;;;;;;0.20;0.20;;;;;;;;;;5146279;27;20303;-71
2022/01/19 12:52:00;;;;;;;0.20;0.20;;;;;;;;;;5146294;27;20255;-72
2022/01/19 12:54:27;;;;;;;0.20;0.20;;;;;;;;;;5144966;27;20202;-72
2022/01/19 12:56:54;;;;;;;0.10;0.10;;;;;;;;;;5142638;27;20270;-72
2022/01/19 12:59:21;;;;;;;0.20;0.20;;;;;;;;;;5124865;28;20225;-72
2022/01/19 13:01:47;;;;;;;0.20;0.20;;;;;;;;;;5139699;27;20249;-73
2022/01/19 13:04:22;;;;;;;0.30;0.30;;;;;;;;;;5142755;27;20199;-71
2022/01/19 13:06:48;;;;;;;0.20;0.20;;;;;;;;;;5146165;27;20189;-72
2022/01/19 13:09:26;;;;;;;0.20;0.20;;;;;;;;;;5145646;27;20218;-73
2022/01/19 13:11:54;;;;;;;0.20;0.20;;;;;;;;;;5145320;27;20293;-70
2022/01/19 13:14:23;;;;;;;0.20;0.20;;;;;;;;;;5133056;27;20313;-71
2022/01/19 13:16:49;;;;;;;0.20;0.20;;;;;;;;;;5133919;27;20524;-71
2022/01/19 13:19:17;;;;;;;0.30;0.30;;;;;;;;;;5124748;28;20542;-71
2022/01/19 13:21:44;;;;;;;0.20;0.20;;;;;;;;;;5124912;28;20225;-71
2022/01/19 13:24:14;;;;;;;0.20;0.20;;;;;;;;;;5124959;28;20257;-71
2022/01/19 13:26:44;;;;;;;0.10;0.10;;;;;;;;;;5128141;27;20230;-73
2022/01/19 13:29:12;;;;;;;0.20;0.20;;;;;;;;;;5145301;27;20253;-71
2022/01/19 13:31:38;;;;;;;0.13;0.13;;;;;;;;;;5142237;27;20273;-71
2022/01/19 13:34:04;;;;;;;0.20;0.20;;;;;;;;;;5124591;28;20243;-70
2022/01/19 13:36:32;;;;;;;0.20;0.20;;;;;;;;;;5133958;27;20240;-72
2022/01/19 13:38:59;;;;;;;0.20;0.20;;;;;;;;;;5140983;27;20214;-71
2022/01/19 13:41:26;;;;;;;0.10;0.10;;;;;;;;;;5124732;28;20544;-71
2022/01/19 13:44:02;;;;;;;0.20;0.20;;;;;;;;;;5124600;28;20525;-71
2022/01/19 13:46:31;;;;;;;0.20;0.20;;;;;;;;;;5124405;28;20539;-71
2022/01/19 13:48:59;;;;;;;0.20;0.20;;;;;;;;;;5124463;28;20266;-72
2022/01/19 13:51:26;;;;;;;0.10;0.10;;;;;;;;;;5126492;27;20470;-71
2022/01/19 13:53:53;;;;;;;0.20;0.20;;;;;;;;;;5135700;27;20206;-71
2022/01/19 13:56:24;;;;;;;0.20;0.20;;;;;;;;;;5129571;27;20204;-71
2022/01/19 13:58:55;;;;;;;0.20;0.20;;;;;;;;;;5124119;28;20278;-72
2022/01/19 14:01:33;;;;;;;0.10;0.10;;;;;;;;;;5124464;28;20539;-71
2022/01/19 14:04:04;;;;;;;0.20;0.20;;;;;;;;;;5124364;28;20190;-71
2022/01/19 14:06:31;;;;;;;0.20;0.20;;;;;;;;;;5123701;28;20225;-72
2022/01/19 14:09:06;;;;;;;0.77;0.77;;;;;;;;;;5124167;27;20269;-71
2022/01/19 14:11:33;;;;;;;0.20;0.20;;;;;;;;;;5124190;28;20566;-71
2022/01/19 14:14:00;;;;;;;0.20;0.20;;;;;;;;;;5125144;27;20234;-71
2022/01/19 14:16:31;;;;;;;0.20;0.20;;;;;;;;;;5127371;27;20211;-70
2022/01/19 14:19:14;;;;;;;0.20;0.20;;;;;;;;;;5136890;27;20237;-71
2022/01/19 14:21:53;;;;;;;0.20;0.20;;;;;;;;;;5125485;27;20203;-72
2022/01/19 14:24:20;;;;;;;0.20;0.20;;;;;;;;;;5123820;27;20201;-71
2022/01/19 14:26:49;;;;;;;0.20;0.20;;;;;;;;;;5123537;28;20220;-71
2022/01/19 14:29:16;;;;;;;0.20;0.20;;;;;;;;;;5124027;28;20198;-71
2022/01/19 14:31:48;;;;;;;0.20;0.20;;;;;;;;;;5123481;28;20356;-73
2022/01/19 14:34:15;;;;;;;0.20;0.20;;;;;;;;;;5123908;28;20480;-72
2022/01/19 14:36:41;;;;;;;0.20;0.20;;;;;;;;;;5123471;28;20241;-71
2022/01/19 14:39:08;;;;;;;0.20;0.20;;;;;;;;;;5123413;28;20226;-72
2022/01/19 14:41:37;;;;;;;0.20;0.20;;;;;;;;;;5127754;27;20230;-72
2022/01/19 14:44:08;;;;;;;0.20;0.20;;;;;;;;;;5130964;27;20489;-71
2022/01/19 14:46:40;;;;;;;0.20;0.20;;;;;;;;;;5132832;27;20202;-71
2022/01/19 14:49:09;;;;;;;0.10;0.10;;;;;;;;;;5123373;28;20191;-70
2022/01/19 14:51:37;;;;;;;0.20;0.20;;;;;;;;;;5123616;28;20208;-71
2022/01/19 14:54:05;;;;;;;0.20;0.20;;;;;;;;;;5123549;28;20230;-71
2022/01/19 14:56:32;;;;;;;0.30;0.30;;;;;;;;;;5126616;28;20230;-72
2022/01/19 14:59:03;;;;;;;0.13;0.13;;;;;;;;;;5132810;27;20222;-71
2022/01/19 15:01:31;;;;;;;0.20;0.20;;;;;;;;;;5144125;27;20196;-71
2022/01/19 15:03:57;;;;;;;0.20;0.20;;;;;;;;;;5143665;27;20206;-71
2022/01/19 15:06:24;;;;;;;0.20;0.20;;;;;;;;;;5143868;27;20215;-72
2022/01/19 15:08:51;;;;;;;0.20;0.20;;;;;;;;;;5144004;27;20293;-72
2022/01/19 15:11:18;;;;;;;0.10;0.10;;;;;;;;;;5137351;27;20208;-73
2022/01/19 15:13:45;;;;;;;0.20;0.20;;;;;;;;;;5131454;27;20244;-72
2022/01/19 15:16:11;;;;;;;0.20;0.20;;;;;;;;;;5126356;28;20391;-72
2022/01/19 15:18:38;;;;;;;0.10;0.10;;;;;;;;;;5125544;28;20446;-71
2022/01/19 15:21:04;;;;;;;0.17;0.17;;;;;;;;;;5128811;27;20421;-72
2022/01/19 15:23:32;;;;;;;0.13;0.13;;;;;;;;;;5135243;27;20199;-69
2022/01/19 15:25:58;;;;;;;0.13;0.13;;;;;;;;;;5127199;28;20427;-72
2022/01/19 15:28:25;;;;;;;0.20;0.20;;;;;;;;;;5135634;27;20201;-72
2022/01/19 15:30:51;;;;;;;0.20;0.20;;;;;;;;;;5137246;27;20203;-71
2022/01/19 15:33:18;;;;;;;0.20;0.20;;;;;;;;;;5134527;27;20271;-71
2022/01/19 15:35:44;;;;;;;0.20;0.20;;;;;;;;;;5129822;27;20203;-73
2022/01/19 15:38:11;;;;;;;0.10;0.10;;;;;;;;;;5126908;28;20218;-72
2022/01/19 15:40:39;;;;;;;0.20;0.20;;;;;;;;;;5127257;27;20235;-72
2022/01/19 15:43:07;;;;;;;0.20;0.20;;;;;;;;;;5147686;27;20230;-73
2022/01/19 15:45:35;;;;;;;0.20;0.20;;;;;;;;;;5147746;27;20308;-73
2022/01/19 15:48:03;;;;;;;0.10;0.10;;;;;;;;;;5147361;27;20204;-72
2022/01/19 15:50:29;;;;;;;0.30;0.30;;;;;;;;;;5147659;27;20203;-73
2022/01/19 15:52:56;;;;;;;0.20;0.20;;;;;;;;;;5147230;27;20203;-72
2022/01/19 15:55:22;;;;;;;0.20;0.20;;;;;;;;;;5147242;27;20202;-72
2022/01/19 15:57:50;;;;;;;0.20;0.20;;;;;;;;;;5147320;27;20311;-74